Time;durP1;ratioP1;P1;durP2;ratioP2;P2;SDS_P1;SDS_P2;PMS_P1;PMS_P2;Temp;Humidity;BMP_temperature;BMP_pressure;BME280_temperature;BME280_humidity;BME280_pressure;Samples;Min_cycle;Max_cycle;Signal;HPM_P1;HPM_P2
2023/05/18 00:02:25;;;;;;;26.60;6.50;;;;;;;17.29;67.04;101068.43;107619;1250;99171;-66
2023/05/18 00:04:53;;;;;;;13.10;6.20;;;;;;;17.23;66.97;101072.29;107668;1252;99714;-67
2023/05/18 00:07:23;;;;;;;13.20;6.50;;;;;;;17.18;66.54;101068.73;107594;1254;113669;-64
2023/05/18 00:09:52;;;;;;;14.20;6.10;;;;;;;17.17;66.58;101068.83;107634;1254;110064;-66
2023/05/18 00:12:20;;;;;;;15.60;6.10;;;;;;;17.16;66.77;101067.11;107657;1253;108487;-65
2023/05/18 00:14:49;;;;;;;14.20;6.50;;;;;;;17.16;67.03;101062.89;107562;1254;99272;-67
2023/05/18 00:17:19;;;;;;;20.70;7.00;;;;;;;17.14;67.78;101064.77;107608;1254;99263;-65
2023/05/18 00:19:49;;;;;;;19.60;6.30;;;;;;;17.06;67.50;101069.33;107585;1256;115093;-65
2023/05/18 00:22:17;;;;;;;14.40;7.00;;;;;;;17.02;68.13;101066.47;107645;1253;110057;-66
2023/05/18 00:24:47;;;;;;;14.60;6.90;;;;;;;16.98;69.07;101070.89;107602;1251;106986;-66
2023/05/18 00:27:15;;;;;;;12.30;6.60;;;;;;;16.94;69.01;101067.39;107501;1251;99181;-65
2023/05/18 00:29:44;;;;;;;14.70;6.30;;;;;;;16.94;68.95;101067.43;107556;1251;99781;-66
2023/05/18 00:32:12;;;;;;;15.70;6.80;;;;;;;16.91;68.94;101070.21;107633;1251;113654;-67
2023/05/18 00:34:41;;;;;;;12.50;5.60;;;;;;;16.90;68.54;101066.36;107563;1250;108777;-65
2023/05/18 00:37:09;;;;;;;14.50;6.40;;;;;;;16.91;68.37;101065.50;107642;1256;110043;-65
2023/05/18 00:39:37;;;;;;;15.30;6.80;;;;;;;16.94;68.34;101064.09;107591;1253;99059;-68
2023/05/18 00:42:06;;;;;;;13.80;5.50;;;;;;;16.95;68.14;101066.34;107625;1255;99048;-66
2023/05/18 00:44:34;;;;;;;13.60;6.20;;;;;;;16.98;68.09;101065.25;107588;1253;112971;-66
2023/05/18 00:47:03;;;;;;;11.20;5.60;;;;;;;16.99;68.76;101070.65;107620;1253;107762;-65
2023/05/18 00:49:32;;;;;;;15.50;6.10;;;;;;;16.95;68.78;101077.63;107592;1254;107764;-65
2023/05/18 00:52:01;;;;;;;13.50;6.20;;;;;;;16.92;68.51;101079.53;107475;1250;99204;-64
2023/05/18 00:54:32;;;;;;;14.10;6.30;;;;;;;16.91;68.62;101078.03;107616;1253;99698;-64
2023/05/18 00:57:01;;;;;;;13.10;5.50;;;;;;;16.88;69.10;101081.56;107647;1254;111443;-64
2023/05/18 00:59:29;;;;;;;16.90;6.20;;;;;;;16.85;68.68;101084.08;107565;1254;109062;-65
2023/05/18 01:01:58;;;;;;;17.30;5.80;;;;;;;16.82;69.22;101081.29;107603;1256;106912;-64
2023/05/18 01:04:26;;;;;;;16.10;5.10;;;;;;;16.78;70.46;101083.58;107562;1252;99159;-65
2023/05/18 01:06:57;;;;;;;12.60;5.90;;;;;;;16.70;70.01;101084.99;107608;1255;99441;-65
2023/05/18 01:09:25;;;;;;;14.00;5.10;;;;;;;16.65;69.72;101083.63;107545;1254;112597;-70
2023/05/18 01:12:17;;;;;;;14.20;5.80;;;;;;;16.58;69.66;101082.30;107607;1253;109828;-66
2023/05/18 01:14:53;;;;;;;13.60;5.00;;;;;;;16.54;69.52;101081.15;107618;1254;107267;-69
2023/05/18 01:17:38;;;;;;;11.50;5.60;;;;;;;16.55;69.73;101081.05;107619;1251;99240;-66
2023/05/18 01:20:22;;;;;;;14.50;5.20;;;;;;;16.56;69.68;101082.31;107609;1254;99093;-67
2023/05/18 01:23:28;;;;;;;14.40;5.10;;;;;;;16.58;71.24;101083.92;107594;1251;113918;-70
2023/05/18 01:26:04;;;;;;;12.20;4.80;;;;;;;16.53;70.67;101089.91;107545;1251;110219;-65
2023/05/18 01:28:34;;;;;;;19.10;6.20;;;;;;;16.55;70.58;101094.83;107583;1253;107457;-67
2023/05/18 01:31:03;;;;;;;11.00;5.50;;;;;;;16.58;70.44;101095.42;107642;1253;99188;-66
2023/05/18 01:33:32;;;;;;;28.00;5.80;;;;;;;16.55;70.04;101095.14;107625;1251;99248;-65
2023/05/18 01:36:01;;;;;;;12.70;5.30;;;;;;;16.57;70.07;101098.56;107534;1251;113201;-65
2023/05/18 01:38:30;;;;;;;9.50;4.30;;;;;;;16.60;69.95;101100.61;107603;1251;109455;-64
2023/05/18 01:41:17;;;;;;;15.00;4.70;;;;;;;16.63;69.96;101102.61;107475;1251;108943;-66
2023/05/18 01:43:52;;;;;;;13.10;4.50;;;;;;;16.64;69.83;101100.57;107599;1250;99211;-65
2023/05/18 01:46:43;;;;;;;13.30;4.80;;;;;;;16.64;69.62;101101.08;107637;1253;99057;-66
2023/05/18 01:49:20;;;;;;;15.90;5.30;;;;;;;16.64;69.79;101108.34;107314;1253;112751;-66
2023/05/18 01:51:50;;;;;;;14.70;4.50;;;;;;;16.57;69.73;101103.29;107579;1251;109315;-64
2023/05/18 01:54:21;;;;;;;16.20;5.80;;;;;;;16.52;69.91;101108.33;107597;1250;107713;-64
2023/05/18 01:56:53;;;;;;;13.10;4.90;;;;;;;16.51;69.86;101107.15;107622;1251;99265;-65
2023/05/18 01:59:22;;;;;;;13.70;4.70;;;;;;;16.50;69.84;101112.02;107561;1251;99269;-66
2023/05/18 02:01:51;;;;;;;13.40;4.60;;;;;;;16.47;69.71;101115.92;107647;1251;111489;-67
2023/05/18 02:04:27;;;;;;;15.60;4.30;;;;;;;16.37;69.65;101111.60;107620;1256;109330;-66
2023/05/18 02:06:56;;;;;;;12.90;4.80;;;;;;;16.24;69.82;101115.63;107641;1251;108801;-67
2023/05/18 02:09:24;;;;;;;24.80;4.60;;;;;;;16.20;69.79;101112.10;107505;1251;99200;-67
2023/05/18 02:11:52;;;;;;;11.90;3.40;;;;;;;16.20;69.94;101111.58;107626;1251;99809;-67
2023/05/18 02:14:20;;;;;;;9.30;3.60;;;;;;;16.19;69.65;101109.54;107563;1251;113067;-67
2023/05/18 02:16:51;;;;;;;8.50;4.00;;;;;;;16.17;69.82;101109.58;107615;1250;109939;-66
2023/05/18 02:19:21;;;;;;;7.00;3.30;;;;;;;16.09;69.42;101111.55;107595;1251;107650;-64
2023/05/18 02:21:50;;;;;;;7.90;3.40;;;;;;;16.00;69.41;101111.52;107572;1254;99034;-64
2023/05/18 02:24:19;;;;;;;9.90;3.80;;;;;;;15.93;69.20;101115.36;107605;1253;99698;-64
2023/05/18 02:26:48;;;;;;;7.70;3.70;;;;;;;15.89;69.35;101115.39;107612;1254;112683;-65
2023/05/18 02:29:16;;;;;;;11.80;3.90;;;;;;;15.83;69.31;101119.43;107561;1251;109716;-65
2023/05/18 02:31:45;;;;;;;9.10;3.60;;;;;;;15.76;69.18;101125.23;107583;1251;107240;-66
2023/05/18 02:34:14;;;;;;;12.40;3.20;;;;;;;15.72;69.32;101124.45;107592;1251;99165;-66
2023/05/18 02:36:42;;;;;;;10.20;4.10;;;;;;;15.72;69.73;101129.46;107604;1251;99337;-66
2023/05/18 02:39:11;;;;;;;10.80;3.60;;;;;;;15.70;69.39;101129.63;107614;1251;112132;-69
2023/05/18 02:41:39;;;;;;;9.00;3.40;;;;;;;15.68;69.30;101133.13;107613;1252;109309;-65
2023/05/18 02:44:08;;;;;;;12.70;3.10;;;;;;;15.64;69.14;101134.60;107446;1254;108720;-66
2023/05/18 02:46:36;;;;;;;9.80;3.50;;;;;;;15.63;69.25;101136.51;107642;1251;99180;-66
2023/05/18 02:49:06;;;;;;;8.00;2.80;;;;;;;15.61;69.26;101136.90;107624;1250;99937;-67
2023/05/18 02:51:34;;;;;;;11.00;3.70;;;;;;;15.58;69.25;101139.01;107460;1253;111643;-70
2023/05/18 02:54:03;;;;;;;10.40;3.90;;;;;;;15.56;69.14;101141.16;107456;1254;109006;-65
2023/05/18 02:56:32;;;;;;;7.90;3.40;;;;;;;15.58;69.28;101145.92;107623;1254;107774;-67
2023/05/18 02:59:10;;;;;;;11.60;3.20;;;;;;;15.59;69.44;101145.23;107588;1251;99048;-66
2023/05/18 03:01:42;;;;;;;17.10;3.50;;;;;;;15.61;69.24;101147.58;107669;1251;99544;-66
2023/05/18 03:04:12;;;;;;;9.30;3.40;;;;;;;15.63;69.43;101150.10;107602;1254;113708;-65
2023/05/18 03:06:46;;;;;;;14.40;4.10;;;;;;;15.67;69.53;101157.84;107610;1250;109038;-66
2023/05/18 03:09:15;;;;;;;10.60;4.80;;;;;;;15.68;69.31;101156.12;107560;1253;107600;-66
2023/05/18 03:11:44;;;;;;;11.20;4.20;;;;;;;15.68;69.37;101158.33;107603;1252;99279;-65
2023/05/18 03:14:13;;;;;;;9.20;3.80;;;;;;;15.63;69.38;101158.53;107586;1254;99053;-69
2023/05/18 03:16:41;;;;;;;9.30;4.00;;;;;;;15.54;69.47;101154.95;107618;1255;112630;-65
2023/05/18 03:19:14;;;;;;;7.40;4.20;;;;;;;15.55;69.34;101161.81;107567;1254;109121;-65
2023/05/18 03:21:43;;;;;;;9.90;3.70;;;;;;;15.54;69.56;101161.70;107581;1253;108251;-63
2023/05/18 03:24:13;;;;;;;5.50;3.10;;;;;;;15.55;69.78;101164.48;107601;1251;99160;-65
2023/05/18 03:26:44;;;;;;;5.40;3.10;;;;;;;15.55;69.71;101166.12;107627;1251;99742;-67
2023/05/18 03:29:12;;;;;;;8.40;3.90;;;;;;;15.57;69.76;101164.49;107582;1251;112951;-65
2023/05/18 03:31:42;;;;;;;7.60;3.70;;;;;;;15.59;69.85;101169.27;107679;1251;110805;-66
2023/05/18 03:34:11;;;;;;;14.80;5.00;;;;;;;15.62;69.91;101171.35;107573;1253;107230;-66
2023/05/18 03:36:46;;;;;;;19.40;7.20;;;;;;;15.63;69.98;101168.52;107586;1254;99038;-66
2023/05/18 03:39:14;;;;;;;6.60;4.50;;;;;;;15.66;69.97;101170.23;107625;1254;99179;-66
2023/05/18 03:41:43;;;;;;;9.80;4.10;;;;;;;15.70;69.98;101171.77;107586;1254;111691;-69
2023/05/18 03:44:11;;;;;;;13.40;4.90;;;;;;;15.76;70.07;101168.59;107492;1254;110928;-65
2023/05/18 03:46:40;;;;;;;7.00;3.90;;;;;;;15.84;70.06;101174.71;107612;1254;107646;-66
2023/05/18 03:49:11;;;;;;;6.70;3.70;;;;;;;15.89;69.84;101175.75;107563;1253;99178;-67
2023/05/18 03:51:41;;;;;;;14.40;4.00;;;;;;;15.93;69.55;101176.30;107536;1254;99111;-65
2023/05/18 03:54:09;;;;;;;9.30;3.70;;;;;;;15.97;69.59;101180.61;107613;1251;112081;-66
2023/05/18 03:56:38;;;;;;;9.90;3.90;;;;;;;16.02;69.39;101182.45;107574;1254;109972;-67
2023/05/18 03:59:06;;;;;;;11.50;4.00;;;;;;;16.07;69.46;101178.96;107615;1253;107769;-65
2023/05/18 04:01:35;;;;;;;8.20;3.90;;;;;;;16.14;69.40;101182.50;107537;1251;99159;-65
2023/05/18 04:04:04;;;;;;;11.20;4.00;;;;;;;16.18;69.66;101188.12;107599;1251;99071;-69
2023/05/18 04:06:34;;;;;;;7.00;3.60;;;;;;;16.21;69.74;101187.69;107597;1251;112379;-65
2023/05/18 04:09:03;;;;;;;6.60;3.40;;;;;;;16.21;69.75;101188.70;107612;1253;109157;-68
2023/05/18 04:11:31;;;;;;;8.80;3.80;;;;;;;16.25;69.67;101187.20;107656;1252;107024;-66
2023/05/18 04:14:00;;;;;;;8.80;3.50;;;;;;;16.30;69.53;101190.16;107595;1252;99240;-68
2023/05/18 04:16:28;;;;;;;12.40;4.20;;;;;;;16.36;69.50;101191.64;107641;1251;100504;-68
2023/05/18 04:18:57;;;;;;;8.60;4.10;;;;;;;16.41;69.20;101191.83;107585;1251;113629;-66
2023/05/18 04:21:25;;;;;;;33.30;5.20;;;;;;;16.48;69.02;101193.12;107463;1254;109664;-69
2023/05/18 04:23:54;;;;;;;14.70;4.20;;;;;;;16.55;68.80;101192.66;107584;1250;107853;-70
2023/05/18 04:26:23;;;;;;;17.50;4.50;;;;;;;16.65;68.57;101192.73;107444;1252;99151;-68
2023/05/18 04:28:52;;;;;;;34.70;4.70;;;;;;;16.76;68.34;101199.38;107611;1251;99199;-67
2023/05/18 04:31:21;;;;;;;11.80;4.10;;;;;;;16.88;68.03;101200.05;107443;1253;112042;-67
2023/05/18 04:33:50;;;;;;;10.90;4.10;;;;;;;17.04;68.08;101200.95;107570;1251;108967;-67
2023/05/18 04:36:19;;;;;;;12.80;3.80;;;;;;;17.21;67.80;101199.63;107547;1251;107648;-68
2023/05/18 04:38:49;;;;;;;26.80;6.80;;;;;;;17.39;67.32;101201.42;107624;1251;99208;-69
2023/05/18 04:41:22;;;;;;;18.70;6.10;;;;;;;17.57;67.08;101204.37;107596;1251;99796;-66
2023/05/18 04:43:51;;;;;;;11.90;4.20;;;;;;;17.73;65.99;101207.23;107591;1251;113045;-66
2023/05/18 04:46:23;;;;;;;25.00;6.00;;;;;;;17.82;64.30;101205.86;107490;1256;108386;-66
2023/05/18 04:48:56;;;;;;;14.50;4.40;;;;;;;17.87;63.43;101208.02;107659;1252;105907;-65
2023/05/18 04:51:25;;;;;;;16.90;4.80;;;;;;;17.93;62.84;101211.96;107617;1251;99191;-65
2023/05/18 04:53:54;;;;;;;15.50;3.30;;;;;;;18.03;62.31;101213.90;107626;1251;99204;-67
2023/05/18 04:56:23;;;;;;;10.70;3.20;;;;;;;18.15;61.89;101217.87;107547;1253;113083;-66
2023/05/18 04:58:51;;;;;;;16.50;2.80;;;;;;;18.26;60.96;101220.63;107468;1252;109518;-66
2023/05/18 05:01:19;;;;;;;14.30;3.00;;;;;;;18.34;60.22;101223.79;107595;1251;108643;-64
2023/05/18 05:03:48;;;;;;;15.60;6.70;;;;;;;18.44;59.94;101226.09;107596;1251;99143;-69
2023/05/18 05:06:17;;;;;;;24.60;3.50;;;;;;;18.54;59.29;101230.48;107627;1251;99681;-68
2023/05/18 05:08:46;;;;;;;13.80;3.60;;;;;;;18.61;58.68;101223.44;107559;1250;112864;-68
2023/05/18 05:11:15;;;;;;;14.30;3.10;;;;;;;18.67;58.70;101226.53;107645;1256;110599;-67
2023/05/18 05:13:43;;;;;;;20.00;3.30;;;;;;;18.76;58.29;101228.63;107616;1251;108143;-66
2023/05/18 05:16:11;;;;;;;16.20;2.40;;;;;;;18.84;58.12;101226.64;107570;1251;99239;-65
2023/05/18 05:18:40;;;;;;;17.20;1.90;;;;;;;18.92;57.60;101232.40;107588;1251;99176;-68
2023/05/18 05:21:09;;;;;;;20.70;2.20;;;;;;;19.01;57.00;101233.62;107567;1254;112687;-66
2023/05/18 05:23:38;;;;;;;23.00;2.60;;;;;;;19.10;56.56;101236.14;107566;1251;108537;-67
2023/05/18 05:26:06;;;;;;;21.60;2.40;;;;;;;19.19;56.42;101232.23;107611;1251;109010;-66
2023/05/18 05:28:35;;;;;;;11.70;2.60;;;;;;;19.24;55.07;101240.33;107579;1256;99199;-65
2023/05/18 05:31:04;;;;;;;40.50;8.50;;;;;;;19.26;53.66;101238.77;107588;1251;99057;-66
2023/05/18 05:33:32;;;;;;;6.70;2.80;;;;;;;19.30;54.22;101244.17;107568;1251;112372;-66
2023/05/18 05:36:04;;;;;;;12.50;1.90;;;;;;;19.35;53.41;101241.38;107597;1254;109849;-66
2023/05/18 05:38:33;;;;;;;14.50;1.60;;;;;;;19.39;51.11;101246.70;107640;1254;107030;-64
2023/05/18 05:41:02;;;;;;;8.20;1.80;;;;;;;19.42;51.35;101245.69;107578;1254;99222;-66
2023/05/18 05:43:30;;;;;;;10.50;1.80;;;;;;;19.46;51.31;101248.18;107557;1256;99733;-65
2023/05/18 05:45:58;;;;;;;12.50;1.70;;;;;;;19.50;51.58;101246.11;107616;1253;112783;-66
2023/05/18 05:48:28;;;;;;;9.00;1.70;;;;;;;19.57;51.92;101245.89;107622;1254;109544;-67
2023/05/18 05:50:57;;;;;;;14.00;2.00;;;;;;;19.62;51.52;101246.54;107669;1255;108781;-68
2023/05/18 05:53:28;;;;;;;7.80;2.00;;;;;;;19.66;51.45;101244.20;107587;1255;99191;-68
2023/05/18 05:55:56;;;;;;;17.80;2.00;;;;;;;19.71;49.80;101244.40;107584;1254;99100;-65
2023/05/18 05:58:25;;;;;;;5.80;1.50;;;;;;;19.77;45.66;101244.49;107635;1255;113163;-67
2023/05/18 06:00:58;;;;;;;17.40;2.30;;;;;;;19.80;46.80;101245.55;107561;1254;109146;-67
2023/05/18 06:03:28;;;;;;;15.20;1.80;;;;;;;19.83;46.18;101248.05;107621;1254;107781;-67
2023/05/18 06:05:59;;;;;;;10.50;2.50;;;;;;;19.89;45.82;101249.55;107578;1255;99259;-68
2023/05/18 06:08:28;;;;;;;14.10;2.20;;;;;;;19.96;45.59;101253.64;107578;1254;100891;-68
2023/05/18 06:10:57;;;;;;;4.30;1.80;;;;;;;20.01;43.41;101257.02;107628;1251;112908;-71
2023/05/18 06:13:25;;;;;;;5.00;1.90;;;;;;;20.05;44.41;101253.83;107617;1251;108247;-68
2023/05/18 06:15:55;;;;;;;2.00;1.50;;;;;;;20.10;43.86;101253.17;107608;1251;108794;-67
2023/05/18 06:18:24;;;;;;;7.20;1.80;;;;;;;20.15;42.75;101255.69;107626;1251;99162;-67
2023/05/18 06:20:57;;;;;;;16.40;4.40;;;;;;;20.20;43.52;101253.63;107586;1254;99099;-66
2023/05/18 06:23:25;;;;;;;12.90;2.30;;;;;;;20.27;43.57;101251.63;107603;1256;113759;-67
2023/05/18 06:26:02;;;;;;;7.40;1.80;;;;;;;20.34;44.04;101254.98;107538;1254;109095;-68
2023/05/18 06:28:49;;;;;;;13.70;3.20;;;;;;;20.41;43.92;101253.52;107601;1254;108920;-68
2023/05/18 06:31:32;;;;;;;10.30;2.30;;;;;;;20.49;41.86;101253.38;107622;1251;99171;-70
2023/05/18 06:34:08;;;;;;;6.10;2.00;;;;;;;20.51;41.63;101251.64;107641;1251;99179;-71
2023/05/18 06:36:37;;;;;;;6.60;2.20;;;;;;;20.55;42.48;101255.73;107605;1254;113134;-67
2023/05/18 06:39:06;;;;;;;12.20;3.10;;;;;;;20.61;42.68;101252.40;107635;1254;108491;-68
2023/05/18 06:41:34;;;;;;;10.60;2.60;;;;;;;20.67;41.51;101246.42;107597;1253;108031;-67
2023/05/18 06:44:03;;;;;;;11.90;2.50;;;;;;;20.73;41.74;101251.34;107529;1252;99102;-68
2023/05/18 06:46:54;;;;;;;9.00;2.30;;;;;;;20.82;41.65;101251.91;107595;1251;99794;-67
2023/05/18 06:49:27;;;;;;;13.50;3.30;;;;;;;20.91;42.17;101244.16;107621;1251;113337;-70
2023/05/18 06:52:01;;;;;;;11.10;2.40;;;;;;;21.00;41.76;101249.80;107537;1254;110106;-72
2023/05/18 06:54:32;;;;;;;23.70;3.90;;;;;;;21.08;41.45;101250.44;107603;1254;108589;-68
2023/05/18 06:57:00;;;;;;;11.80;2.20;;;;;;;21.15;40.91;101248.36;107431;1254;99169;-68
2023/05/18 06:59:29;;;;;;;4.60;2.00;;;;;;;21.22;40.62;101252.59;107541;1257;99175;-68
2023/05/18 07:01:59;;;;;;;5.30;2.10;;;;;;;21.27;39.65;101254.12;107628;1251;113247;-68
2023/05/18 07:04:28;;;;;;;2.70;1.70;;;;;;;21.32;38.77;101257.29;107641;1251;109886;-67
2023/05/18 07:06:56;;;;;;;3.00;1.90;;;;;;;21.38;37.78;101261.69;107639;1251;107487;-70
2023/05/18 07:09:24;;;;;;;22.40;2.80;;;;;;;21.39;38.21;101260.20;107579;1251;99237;-68
2023/05/18 07:11:53;;;;;;;7.90;2.50;;;;;;;21.42;38.40;101260.75;107580;1254;99973;-68
2023/05/18 07:14:21;;;;;;;10.60;2.30;;;;;;;21.50;37.76;101261.95;107639;1251;112649;-70
2023/05/18 07:16:49;;;;;;;11.30;2.60;;;;;;;21.57;38.27;101260.81;107642;1251;109840;-69
2023/05/18 07:19:18;;;;;;;4.80;2.40;;;;;;;21.66;37.92;101257.99;107593;1251;107975;-68
2023/05/18 07:21:46;;;;;;;26.00;5.00;;;;;;;21.73;37.25;101252.48;107609;1251;99252;-67
2023/05/18 07:24:15;;;;;;;6.90;2.40;;;;;;;21.81;38.30;101253.90;107606;1252;99127;-67
2023/05/18 07:26:44;;;;;;;12.70;3.00;;;;;;;21.89;38.57;101253.16;107643;1251;112626;-68
2023/05/18 07:29:16;;;;;;;3.90;2.10;;;;;;;21.98;38.21;101254.70;107603;1251;108678;-66
2023/05/18 07:31:44;;;;;;;6.60;2.50;;;;;;;22.06;37.58;101257.32;107639;1251;109152;-69
2023/05/18 07:34:13;;;;;;;13.90;2.70;;;;;;;22.12;37.62;101256.42;107685;1251;99793;-68
2023/05/18 07:36:42;;;;;;;9.40;2.70;;;;;;;22.18;37.86;101258.91;107598;1254;99323;-70
2023/05/18 07:39:17;;;;;;;10.00;2.20;;;;;;;22.23;37.76;101258.60;107543;1258;113168;-67
2023/05/18 07:41:49;;;;;;;5.60;2.00;;;;;;;22.29;37.57;101252.86;107612;1250;108952;-69
2023/05/18 07:44:17;;;;;;;8.80;2.30;;;;;;;22.35;36.92;101253.23;107581;1251;107564;-69
2023/05/18 07:46:46;;;;;;;11.10;2.10;;;;;;;22.36;36.77;101249.35;107660;1251;99076;-68
2023/05/18 07:49:14;;;;;;;5.80;2.30;;;;;;;22.40;36.90;101250.91;107656;1251;99190;-67
2023/05/18 07:51:43;;;;;;;7.50;3.10;;;;;;;22.46;36.17;101251.41;107657;1251;113954;-69
2023/05/18 07:54:11;;;;;;;6.50;2.30;;;;;;;22.51;36.68;101254.56;107626;1251;110043;-68
2023/05/18 07:56:40;;;;;;;4.50;2.70;;;;;;;22.61;37.13;101254.77;107651;1251;106855;-70
2023/05/18 07:59:09;;;;;;;35.40;11.20;;;;;;;22.73;36.32;101257.98;107612;1251;99153;-68
2023/05/18 08:01:38;;;;;;;6.80;2.90;;;;;;;22.84;36.38;101250.25;107012;1255;786721;-69
2023/05/18 08:04:07;;;;;;;4.40;2.10;;;;;;;22.99;36.42;101248.56;107597;1253;113006;-68
2023/05/18 08:06:37;;;;;;;20.60;2.50;;;;;;;23.12;36.08;101249.40;107649;1251;108893;-68
2023/05/18 08:09:05;;;;;;;6.30;2.10;;;;;;;23.25;34.47;101249.11;107609;1251;108018;-68
2023/05/18 08:11:35;;;;;;;5.20;2.20;;;;;;;23.31;34.44;101248.52;107623;1256;99147;-67
2023/05/18 08:14:04;;;;;;;4.30;2.10;;;;;;;23.44;34.61;101250.69;107581;1251;99061;-68
2023/05/18 08:16:36;;;;;;;15.20;3.20;;;;;;;23.58;34.42;101254.75;107626;1251;113649;-68
2023/05/18 08:19:07;;;;;;;3.70;2.10;;;;;;;23.70;33.62;101252.77;107656;1251;110051;-68
2023/05/18 08:21:37;;;;;;;3.90;2.10;;;;;;;23.79;33.39;101247.68;107645;1255;107227;-68
2023/05/18 08:24:07;;;;;;;12.30;2.10;;;;;;;23.79;32.59;101250.65;107608;1251;99240;-68
2023/05/18 08:26:36;;;;;;;9.00;2.40;;;;;;;23.80;32.91;101257.69;107713;1251;99329;-71
2023/05/18 08:29:08;;;;;;;9.40;2.60;;;;;;;23.90;33.55;101252.23;107595;1251;113752;-67
2023/05/18 08:31:39;;;;;;;8.30;2.50;;;;;;;24.02;33.61;101245.48;107668;1251;109668;-68
2023/05/18 08:34:07;;;;;;;7.80;2.40;;;;;;;24.14;33.66;101241.23;107639;1251;108693;-68
2023/05/18 08:36:36;;;;;;;7.10;2.70;;;;;;;24.26;32.36;101241.96;107599;1251;99168;-67
2023/05/18 08:39:04;;;;;;;5.90;2.20;;;;;;;24.32;32.32;101243.02;107632;1250;99175;-68
2023/05/18 08:41:40;;;;;;;5.80;2.80;;;;;;;24.43;32.31;101246.89;107667;1251;113012;-68
2023/05/18 08:44:15;;;;;;;9.20;3.60;;;;;;;24.52;32.13;101244.81;107633;1254;109970;-69
2023/05/18 08:46:49;;;;;;;22.30;3.40;;;;;;;24.66;32.08;101245.49;107588;1254;108454;-71
2023/05/18 08:49:20;;;;;;;9.50;2.90;;;;;;;24.84;31.34;101243.40;107550;1252;99351;-69
2023/05/18 08:51:56;;;;;;;15.30;3.80;;;;;;;24.94;31.30;101242.48;107683;1254;99198;-67
2023/05/18 08:54:25;;;;;;;13.80;4.00;;;;;;;25.05;31.10;101239.46;107612;1254;112174;-69
2023/05/18 08:56:54;;;;;;;6.10;3.30;;;;;;;25.18;29.67;101241.16;107631;1253;110142;-67
2023/05/18 08:59:25;;;;;;;11.40;3.50;;;;;;;25.19;29.94;101240.39;107646;1254;108837;-67
2023/05/18 09:01:54;;;;;;;8.20;3.40;;;;;;;25.30;30.01;101238.65;107596;1251;99388;-68
2023/05/18 09:04:23;;;;;;;5.70;3.70;;;;;;;25.51;29.77;101236.27;107617;1251;99159;-66
2023/05/18 09:06:55;;;;;;;6.50;3.00;;;;;;;25.63;29.71;101239.23;107583;1251;113410;-67
2023/05/18 09:09:24;;;;;;;10.00;4.00;;;;;;;25.59;29.17;101238.11;107645;1251;109453;-67
2023/05/18 09:11:55;;;;;;;17.20;4.50;;;;;;;25.59;29.33;101239.23;107618;1251;107825;-67
2023/05/18 09:14:25;;;;;;;11.00;3.50;;;;;;;25.58;29.77;101238.92;107581;1253;99212;-69
2023/05/18 09:16:54;;;;;;;17.80;9.20;;;;;;;25.64;29.71;101233.53;107614;1256;99041;-67
2023/05/18 09:19:23;;;;;;;10.30;3.30;;;;;;;25.90;29.84;101234.14;107577;1255;111804;-69
2023/05/18 09:21:51;;;;;;;6.80;2.40;;;;;;;26.37;28.77;101230.30;107626;1254;108221;-67
2023/05/18 09:24:20;;;;;;;14.20;4.70;;;;;;;26.60;28.18;101230.98;107589;1254;107536;-67
2023/05/18 09:26:52;;;;;;;9.10;4.00;;;;;;;26.75;27.47;101231.14;107562;1251;99181;-68
2023/05/18 09:29:23;;;;;;;12.50;3.40;;;;;;;27.18;27.77;101230.87;107610;1251;99666;-69
2023/05/18 09:31:53;;;;;;;9.50;2.50;;;;;;;27.51;28.19;101231.89;107558;1254;112833;-67
2023/05/18 09:34:23;;;;;;;5.00;2.60;;;;;;;27.66;27.52;101231.86;107557;1254;108752;-67
2023/05/18 09:36:52;;;;;;;3.50;2.30;;;;;;;27.63;27.06;101228.09;107613;1251;108109;-67
2023/05/18 09:39:20;;;;;;;9.00;2.80;;;;;;;27.52;26.35;101227.33;107613;1251;99162;-68
2023/05/18 09:41:56;;;;;;;8.50;3.70;;;;;;;27.36;27.20;101227.41;107615;1253;99089;-67
2023/05/18 09:44:34;;;;;;;9.00;4.40;;;;;;;27.48;28.00;101223.63;107617;1252;112706;-69
2023/05/18 09:47:09;;;;;;;14.20;3.80;;;;;;;27.99;27.54;101215.69;107594;1256;109242;-66
2023/05/18 09:49:39;;;;;;;25.80;4.10;;;;;;;28.17;27.10;101211.26;107596;1254;107930;-68
2023/05/18 09:52:11;;;;;;;15.00;3.60;;;;;;;28.10;27.15;101215.98;107666;1254;99182;-67
2023/05/18 09:54:39;;;;;;;31.60;5.20;;;;;;;28.02;26.54;101214.89;107629;1251;99166;-67
2023/05/18 09:57:08;;;;;;;5.40;2.90;;;;;;;28.05;26.22;101213.06;107605;1251;113059;-68
2023/05/18 09:59:38;;;;;;;8.60;2.80;;;;;;;28.08;25.86;101211.02;107648;1250;110209;-72
2023/05/18 10:02:11;;;;;;;8.00;3.80;;;;;;;28.12;26.44;101206.35;107634;1251;108155;-69
2023/05/18 10:04:41;;;;;;;7.50;2.50;;;;;;;28.24;26.88;101205.21;107613;1251;99162;-66
2023/05/18 10:07:14;;;;;;;8.30;3.00;;;;;;;28.45;26.66;101204.59;107669;1251;99790;-67
2023/05/18 10:09:44;;;;;;;4.50;2.20;;;;;;;28.56;25.56;101196.11;107640;1251;113458;-68
2023/05/18 10:12:14;;;;;;;7.60;2.80;;;;;;;28.36;25.87;101202.54;107644;1256;109178;-68
2023/05/18 10:14:44;;;;;;;13.70;3.70;;;;;;;28.70;26.18;101191.30;107632;1251;108886;-68
2023/05/18 10:17:14;;;;;;;15.60;3.00;;;;;;;29.74;25.91;101187.18;107675;1256;99267;-68
2023/05/18 10:19:45;;;;;;;9.90;3.10;;;;;;;30.71;25.08;101188.71;107636;1256;99168;-69
2023/05/18 10:22:16;;;;;;;4.70;2.30;;;;;;;30.84;24.25;101193.08;107628;1251;113706;-67
2023/05/18 10:24:50;;;;;;;19.10;3.00;;;;;;;30.93;23.85;101194.48;107599;1254;109196;-66
2023/05/18 10:27:27;;;;;;;6.70;2.40;;;;;;;30.66;24.17;101190.40;107631;1251;106866;-66
2023/05/18 10:29:57;;;;;;;16.60;2.40;;;;;;;30.28;24.20;101190.75;107541;1255;99039;-67
2023/05/18 10:32:29;;;;;;;5.90;2.20;;;;;;;30.12;24.16;101193.55;107684;1251;99054;-67
2023/05/18 10:34:59;;;;;;;10.90;3.00;;;;;;;30.83;24.57;101189.16;107646;1251;112680;-67
2023/05/18 10:37:29;;;;;;;6.60;2.80;;;;;;;31.08;23.87;101189.31;107662;1251;108083;-66
2023/05/18 10:40:00;;;;;;;6.20;2.80;;;;;;;30.84;24.05;101186.75;107689;1251;107525;-66
2023/05/18 10:42:32;;;;;;;11.10;2.70;;;;;;;30.72;24.22;101184.29;107632;1251;99171;-65
2023/05/18 10:45:01;;;;;;;24.70;2.70;;;;;;;31.05;23.93;101185.34;107567;1254;99500;-65
2023/05/18 10:47:34;;;;;;;24.10;11.80;;;;;;;31.06;23.40;101181.34;107625;1254;113703;-65
2023/05/18 10:50:05;;;;;;;9.50;2.90;;;;;;;31.45;22.86;101177.99;107630;1253;108638;-66
2023/05/18 10:52:36;;;;;;;6.80;2.90;;;;;;;31.66;23.11;101179.32;107610;1254;108608;-67
2023/05/18 10:55:06;;;;;;;10.20;2.80;;;;;;;31.71;22.46;101179.30;107630;1254;99218;-65
2023/05/18 10:58:02;;;;;;;15.10;3.40;;;;;;;32.08;22.96;101170.15;107642;1254;99178;-65
2023/05/18 11:00:34;;;;;;;4.20;2.60;;;;;;;33.32;21.83;101166.67;107681;1253;113152;-67
2023/05/18 11:03:06;;;;;;;6.20;2.20;;;;;;;34.23;20.57;101163.27;107629;1254;109824;-65
2023/05/18 11:05:35;;;;;;;14.30;2.00;;;;;;;34.44;19.86;101164.41;107629;1252;107408;-64
2023/05/18 11:08:04;;;;;;;10.70;2.80;;;;;;;34.16;20.13;101165.48;107631;1251;99158;-68
2023/05/18 11:10:40;;;;;;;8.00;2.20;;;;;;;33.89;20.48;101165.02;107623;1256;99143;-64
2023/05/18 11:13:12;;;;;;;13.60;3.00;;;;;;;33.32;20.20;101157.42;107625;1256;111779;-65
2023/05/18 11:15:52;;;;;;;5.40;2.20;;;;;;;32.65;21.13;101158.98;107646;1251;108232;-65
2023/05/18 11:18:42;;;;;;;5.40;2.10;;;;;;;31.87;21.38;101164.42;107669;1251;107452;-66
2023/05/18 11:21:23;;;;;;;5.20;2.40;;;;;;;31.14;22.53;101168.36;107633;1251;99186;-64
2023/05/18 11:24:17;;;;;;;8.70;2.50;;;;;;;30.62;22.28;101160.52;107581;1251;99766;-65